createdAt,value
2018-01-19T00:10:59.157Z,16.90
2018-01-19T00:13:26.623Z,19.47
2018-01-19T00:15:54.087Z,21.60
2018-01-19T00:18:21.567Z,17.63
2018-01-19T00:20:49.027Z,14.53
2018-01-19T00:23:18.460Z,17.00
2018-01-19T00:25:45.915Z,14.40
2018-01-19T00:28:13.408Z,15.53
2018-01-19T00:30:40.878Z,14.50
2018-01-19T00:33:08.356Z,13.67
2018-01-19T00:35:35.813Z,10.63
2018-01-19T00:38:03.278Z,12.20
2018-01-19T00:40:30.728Z,12.73
2018-01-19T00:42:58.202Z,10.77
2018-01-19T00:45:25.654Z,9.30
2018-01-19T00:47:53.121Z,9.80
2018-01-19T00:50:20.599Z,13.07
2018-01-19T00:52:48.078Z,8.87
2018-01-19T00:55:15.526Z,9.20
2018-01-19T00:57:42.994Z,7.50
2018-01-19T01:00:10.442Z,7.07
2018-01-19T01:02:37.906Z,6.40
2018-01-19T01:05:05.355Z,4.60
2018-01-19T01:07:32.823Z,3.77
2018-01-19T01:10:00.311Z,3.33
2018-01-19T01:12:27.781Z,1.43
2018-01-19T01:14:55.236Z,1.90
2018-01-19T01:17:22.739Z,2.13
2018-01-19T01:19:50.186Z,2.37
2018-01-19T01:22:17.646Z,1.80
2018-01-19T01:24:45.092Z,2.20
2018-01-19T01:27:12.562Z,2.37
2018-01-19T01:29:40.020Z,2.57
2018-01-19T01:32:07.490Z,3.03
2018-01-19T01:34:34.943Z,2.77
2018-01-19T01:37:02.427Z,1.23
2018-01-19T01:39:29.877Z,1.13
2018-01-19T01:41:57.333Z,1.43
2018-01-19T01:44:24.822Z,2.47
2018-01-19T01:46:52.282Z,3.17
2018-01-19T01:49:19.760Z,2.77
2018-01-19T01:51:47.207Z,2.60
2018-01-19T01:54:14.692Z,1.77
2018-01-19T01:56:42.140Z,1.77
2018-01-19T01:59:09.622Z,5.13
2018-01-19T02:01:37.075Z,4.97
2018-01-19T02:04:04.547Z,4.13
2018-01-19T02:06:32.002Z,3.83
2018-01-19T02:08:59.471Z,4.00
2018-01-19T02:11:26.934Z,3.20
2018-01-19T02:13:54.401Z,3.23
2018-01-19T02:16:21.858Z,2.23
2018-01-19T02:18:49.332Z,2.13
2018-01-19T02:21:16.788Z,4.43
2018-01-19T02:23:44.258Z,2.47
2018-01-19T02:26:11.706Z,3.83
2018-01-19T02:28:39.195Z,2.63
2018-01-19T02:31:06.638Z,3.87
2018-01-19T02:33:34.111Z,3.83
2018-01-19T02:36:01.558Z,2.60
2018-01-19T02:38:29.025Z,2.93
2018-01-19T02:40:56.476Z,5.10
2018-01-19T02:43:23.950Z,3.90
2018-01-19T02:45:51.410Z,5.67
2018-01-19T02:48:18.892Z,11.07
2018-01-19T02:50:46.350Z,3.57
2018-01-19T02:53:13.824Z,5.60
2018-01-19T02:55:41.281Z,6.20
2018-01-19T02:58:08.811Z,6.20
2018-01-19T03:00:36.255Z,13.40
2018-01-19T03:03:03.718Z,4.27
2018-01-19T03:05:31.183Z,4.40
2018-01-19T03:07:58.635Z,4.83
2018-01-19T03:10:26.102Z,2.70
2018-01-19T03:12:53.554Z,3.77
2018-01-19T03:15:21.257Z,7.70
2018-01-19T03:17:48.709Z,2.33
2018-01-19T03:20:16.175Z,3.70
2018-01-19T03:22:43.634Z,2.90
2018-01-19T03:25:11.102Z,5.43
2018-01-19T03:27:38.561Z,4.10
2018-01-19T03:30:06.024Z,2.70
2018-01-19T03:32:33.479Z,5.73
2018-01-19T03:35:00.950Z,8.67
2018-01-19T03:37:28.406Z,3.27
2018-01-19T03:39:55.878Z,2.57
2018-01-19T03:42:23.323Z,5.57
2018-01-19T03:44:50.793Z,5.83
2018-01-19T03:47:18.242Z,7.87
2018-01-19T03:49:45.725Z,4.53
2018-01-19T03:52:13.182Z,5.57
2018-01-19T03:54:40.646Z,5.20
2018-01-19T03:57:08.104Z,6.97
2018-01-19T03:59:35.568Z,9.40
2018-01-19T04:02:03.023Z,5.20
2018-01-19T04:04:30.502Z,4.40
2018-01-19T04:06:57.953Z,6.30
2018-01-19T04:09:25.422Z,4.87
2018-01-19T04:11:52.880Z,7.40
2018-01-19T04:14:20.351Z,6.40
2018-01-19T04:16:47.799Z,4.60
2018-01-19T04:19:15.262Z,5.37
2018-01-19T04:21:42.714Z,7.23
2018-01-19T04:24:10.219Z,7.87
2018-01-19T04:26:37.670Z,5.17
2018-01-19T04:29:05.131Z,7.00
2018-01-19T04:31:32.598Z,4.33
2018-01-19T04:34:00.043Z,3.47
2018-01-19T04:36:27.523Z,6.23
2018-01-19T04:38:54.967Z,9.47
2018-01-19T04:41:22.440Z,7.10
2018-01-19T04:43:49.947Z,5.63
2018-01-19T04:46:17.414Z,6.13
2018-01-19T04:48:44.867Z,4.03
2018-01-19T04:51:12.339Z,5.93
2018-01-19T04:53:39.789Z,6.60
2018-01-19T04:56:07.373Z,5.83
2018-01-19T04:58:34.830Z,5.57
2018-01-19T05:01:02.302Z,3.80
2018-01-19T05:03:29.755Z,4.43
2018-01-19T05:05:57.239Z,5.00
2018-01-19T05:08:24.687Z,5.23
2018-01-19T05:10:52.157Z,4.93
2018-01-19T05:13:19.606Z,9.63
2018-01-19T05:15:47.079Z,4.73
2018-01-19T05:18:14.531Z,7.20
2018-01-19T05:20:42.010Z,4.50
2018-01-19T05:23:09.470Z,7.93
2018-01-19T05:25:36.940Z,6.23
2018-01-19T05:28:04.396Z,4.87
2018-01-19T05:30:31.902Z,4.83
2018-01-19T05:32:59.356Z,3.70
2018-01-19T05:35:26.831Z,3.17
2018-01-19T05:37:54.300Z,3.30
2018-01-19T05:40:21.767Z,4.10
2018-01-19T05:42:49.221Z,4.27
2018-01-19T05:45:16.686Z,3.00
2018-01-19T05:47:44.163Z,3.70
2018-01-19T05:50:11.627Z,3.23
2018-01-19T05:52:39.116Z,4.20
2018-01-19T05:55:06.558Z,3.33
2018-01-19T05:57:34.034Z,7.93
2018-01-19T06:00:01.572Z,4.20
2018-01-19T06:02:29.051Z,4.70
2018-01-19T06:04:56.510Z,3.07
2018-01-19T06:07:23.983Z,4.33
2018-01-19T06:09:51.435Z,3.87
2018-01-19T06:12:18.914Z,3.60
2018-01-19T06:14:46.359Z,2.60
2018-01-19T06:17:13.828Z,3.53
2018-01-19T06:19:41.284Z,3.47
2018-01-19T06:22:08.764Z,3.10
2018-01-19T06:24:36.206Z,4.97
2018-01-19T06:27:03.674Z,4.97
2018-01-19T06:29:31.133Z,3.73
2018-01-19T06:31:58.608Z,3.23
2018-01-19T06:34:26.066Z,4.30
2018-01-19T06:36:53.545Z,1.83
2018-01-19T06:39:20.995Z,2.03
2018-01-19T06:41:48.519Z,4.93
2018-01-19T06:44:15.959Z,3.73
2018-01-19T06:46:43.431Z,4.53
2018-01-19T06:49:10.882Z,4.73
2018-01-19T06:51:38.379Z,3.17
2018-01-19T06:54:05.827Z,4.13
2018-01-19T06:56:33.294Z,3.90
2018-01-19T06:59:00.743Z,2.97
2018-01-19T07:01:28.222Z,4.30
2018-01-19T07:03:55.695Z,5.90
2018-01-19T07:06:23.164Z,6.30
2018-01-19T07:08:50.615Z,7.03
2018-01-19T07:11:18.065Z,3.67
2018-01-19T07:13:45.536Z,6.73
2018-01-19T07:16:12.996Z,5.37
2018-01-19T07:18:40.467Z,5.30
2018-01-19T07:21:07.928Z,8.20
2018-01-19T07:23:35.399Z,6.20
2018-01-19T07:26:02.847Z,5.27
2018-01-19T07:28:30.319Z,4.20
2018-01-19T07:30:57.766Z,4.73
2018-01-19T07:33:25.244Z,8.23
2018-01-19T07:35:52.699Z,7.03
2018-01-19T07:38:20.192Z,5.13
2018-01-19T07:40:47.647Z,4.27
2018-01-19T07:43:15.128Z,8.33
2018-01-19T07:45:42.587Z,7.77
2018-01-19T07:48:10.074Z,6.97
2018-01-19T07:50:37.528Z,8.60
2018-01-19T07:53:05.015Z,10.90
2018-01-19T07:55:32.467Z,9.60
2018-01-19T07:57:59.943Z,8.27
2018-01-19T08:00:27.390Z,7.10
2018-01-19T08:02:54.855Z,4.17
2018-01-19T08:05:22.330Z,7.23
2018-01-19T08:07:49.801Z,6.07
2018-01-19T08:10:17.332Z,9.97
2018-01-19T08:12:44.820Z,4.47
2018-01-19T08:15:12.276Z,6.53
2018-01-19T08:17:39.742Z,10.50
2018-01-19T08:20:07.194Z,7.47
2018-01-19T08:22:34.658Z,8.57
2018-01-19T08:25:02.107Z,8.40
2018-01-19T08:27:29.575Z,6.50
2018-01-19T08:29:57.025Z,5.67
2018-01-19T08:32:24.504Z,7.87
2018-01-19T08:34:52.029Z,7.43
2018-01-19T08:37:19.459Z,5.03
2018-01-19T08:39:46.922Z,5.53
2018-01-19T08:42:14.378Z,5.20
2018-01-19T08:44:41.846Z,5.67
2018-01-19T08:47:09.298Z,5.23
2018-01-19T08:49:36.763Z,5.47
2018-01-19T08:52:04.215Z,7.37
2018-01-19T08:54:31.688Z,5.77
2018-01-19T08:56:59.146Z,7.83
2018-01-19T08:59:26.631Z,12.53
2018-01-19T09:01:54.102Z,4.30
2018-01-19T09:04:21.571Z,4.33
2018-01-19T09:06:49.036Z,7.43
2018-01-19T09:09:16.507Z,8.00
2018-01-19T09:11:43.963Z,11.10
2018-01-19T09:14:11.438Z,8.07
2018-01-19T09:16:38.946Z,10.37
2018-01-19T09:19:06.422Z,6.07
2018-01-19T09:21:33.879Z,9.30
2018-01-19T09:24:01.350Z,8.63
2018-01-19T09:26:28.800Z,5.23
2018-01-19T09:34:39.334Z,21.73
2018-01-19T09:37:06.779Z,4.97
2018-01-19T09:39:34.255Z,11.17
2018-01-19T09:42:01.712Z,7.73
2018-01-19T09:44:29.204Z,6.27
2018-01-19T09:46:56.669Z,7.93
2018-01-19T09:49:24.134Z,5.07
2018-01-19T09:51:51.582Z,9.03
2018-01-19T09:54:19.048Z,4.93
2018-01-19T09:56:46.498Z,3.67
2018-01-19T09:59:13.962Z,2.40
2018-01-19T10:01:41.411Z,2.97
2018-01-19T10:04:08.872Z,2.67
2018-01-19T10:06:36.330Z,9.73
2018-01-19T10:09:03.811Z,7.53
2018-01-19T10:11:31.266Z,4.87
2018-01-19T10:13:58.744Z,9.17
2018-01-19T10:16:26.194Z,2.97
2018-01-19T10:18:54.346Z,3.77
2018-01-19T10:21:21.803Z,4.73
2018-01-19T10:23:49.259Z,3.63
2018-01-19T10:26:16.726Z,9.80
2018-01-19T10:28:44.174Z,3.40
2018-01-19T10:31:11.634Z,4.80
2018-01-19T10:33:39.083Z,8.27
2018-01-19T10:36:06.556Z,5.67
2018-01-19T10:38:34.006Z,9.63
2018-01-19T10:41:01.479Z,7.60
2018-01-19T10:43:28.936Z,4.90
2018-01-19T10:45:56.411Z,2.03
2018-01-19T10:48:23.927Z,4.53
2018-01-19T10:50:52.243Z,3.77
2018-01-19T10:53:19.699Z,10.17
2018-01-19T10:55:47.171Z,5.40
2018-01-19T10:58:14.623Z,5.60
2018-01-19T11:00:42.100Z,3.57
2018-01-19T11:03:09.560Z,3.73
2018-01-19T11:05:37.043Z,2.10
2018-01-19T11:08:04.487Z,3.10
2018-01-19T11:10:31.959Z,4.23
2018-01-19T11:12:59.414Z,9.83
2018-01-19T11:15:26.900Z,5.13
2018-01-19T11:17:54.352Z,3.70
2018-01-19T11:20:21.825Z,7.27
2018-01-19T11:22:49.276Z,5.53
2018-01-19T11:25:16.781Z,8.90
2018-01-19T11:27:44.217Z,7.20
2018-01-19T11:30:11.688Z,4.43
2018-01-19T11:32:39.143Z,2.03
2018-01-19T11:35:06.614Z,4.13
2018-01-19T11:37:34.095Z,4.97
2018-01-19T11:40:01.567Z,5.27
2018-01-19T11:42:29.028Z,4.30
2018-01-19T11:44:56.502Z,3.90
2018-01-19T11:47:23.949Z,3.27
2018-01-19T11:49:51.415Z,2.33
2018-01-19T11:52:18.890Z,3.30
2018-01-19T11:54:46.352Z,5.07
2018-01-19T11:57:13.815Z,3.93
2018-01-19T11:59:41.266Z,2.73
2018-01-19T12:02:08.738Z,4.30
2018-01-19T12:04:36.228Z,3.40
2018-01-19T12:07:03.707Z,4.10
2018-01-19T12:09:31.162Z,2.70
2018-01-19T12:11:58.637Z,5.33
2018-01-19T12:14:26.092Z,2.63
2018-01-19T12:16:53.558Z,4.23
2018-01-19T12:19:21.006Z,2.67
2018-01-19T12:21:48.474Z,3.30
2018-01-19T12:24:15.943Z,5.50
2018-01-19T12:26:43.418Z,3.80
2018-01-19T12:29:10.873Z,1.70
2018-01-19T12:31:38.392Z,8.23
2018-01-19T12:34:05.862Z,6.30
2018-01-19T12:36:33.334Z,5.30
2018-01-19T12:39:00.786Z,6.67
2018-01-19T12:41:28.262Z,4.07
2018-01-19T12:43:55.726Z,3.30
2018-01-19T12:46:23.198Z,6.23
2018-01-19T12:48:50.652Z,1.93
2018-01-19T12:51:18.124Z,1.50
2018-01-19T12:53:45.574Z,4.70
2018-01-19T12:56:13.043Z,3.40
2018-01-19T12:58:40.491Z,4.50
2018-01-19T13:01:07.990Z,3.20
2018-01-19T13:03:35.452Z,6.27
2018-01-19T13:06:02.931Z,3.10
2018-01-19T13:08:30.394Z,5.57
2018-01-19T13:10:57.868Z,4.77
2018-01-19T13:13:25.327Z,4.53
2018-01-19T13:15:52.770Z,5.93
2018-01-19T13:18:20.238Z,3.77
2018-01-19T13:20:47.707Z,4.00
2018-01-19T13:23:15.231Z,5.37
2018-01-19T13:25:42.651Z,8.10
2018-01-19T13:28:10.118Z,6.17
2018-01-19T13:30:37.579Z,4.53
2018-01-19T13:33:05.049Z,4.17
2018-01-19T13:35:32.498Z,5.93
2018-01-19T13:37:59.980Z,3.57
2018-01-19T13:40:27.439Z,4.03
2018-01-19T13:42:54.910Z,3.77
2018-01-19T13:45:22.367Z,2.90
2018-01-19T13:47:49.844Z,6.30
2018-01-19T13:50:17.310Z,6.53
2018-01-19T13:52:44.789Z,8.13
2018-01-19T13:55:12.243Z,8.73
2018-01-19T13:57:39.714Z,13.20
2018-01-19T14:00:07.170Z,14.40
2018-01-19T14:02:34.642Z,11.53
2018-01-19T14:05:02.107Z,8.00
2018-01-19T14:07:29.626Z,4.90
2018-01-19T14:09:57.071Z,4.60
2018-01-19T14:12:24.537Z,6.00
2018-01-19T14:14:52.006Z,2.33
2018-01-19T14:17:19.487Z,3.13
2018-01-19T14:19:46.949Z,5.93
2018-01-19T14:22:14.433Z,5.80
2018-01-19T14:24:41.898Z,3.40
2018-01-19T14:27:09.379Z,3.97
2018-01-19T14:29:36.830Z,5.13
2018-01-19T14:32:04.331Z,2.77
2018-01-19T14:34:31.778Z,2.57
2018-01-19T14:36:59.372Z,6.30
2018-01-19T14:39:26.853Z,5.07
2018-01-19T14:41:54.311Z,6.07
2018-01-19T14:44:21.778Z,5.60
2018-01-19T14:46:49.245Z,2.70
2018-01-19T14:49:16.718Z,5.17
2018-01-19T14:51:44.162Z,3.17
2018-01-19T14:54:11.636Z,4.33
2018-01-19T14:56:39.162Z,7.07
2018-01-19T14:59:06.650Z,4.90
2018-01-19T15:01:34.100Z,4.53
2018-01-19T15:04:01.572Z,4.70
2018-01-19T15:06:29.032Z,4.97
2018-01-19T15:08:56.498Z,5.43
2018-01-19T15:11:23.947Z,6.37
2018-01-19T15:13:51.441Z,4.97
2018-01-19T15:16:18.903Z,4.80
2018-01-19T15:18:46.390Z,11.50
2018-01-19T15:21:13.839Z,4.23
2018-01-19T15:23:41.310Z,4.63
2018-01-19T15:26:08.771Z,5.17
2018-01-19T15:28:37.318Z,7.73
2018-01-19T15:31:04.782Z,5.27
2018-01-19T15:33:32.267Z,5.60
2018-01-19T15:35:59.759Z,7.60
2018-01-19T15:38:27.240Z,3.73
2018-01-19T15:40:54.713Z,3.37
2018-01-19T15:43:22.189Z,5.43
2018-01-19T15:45:49.663Z,4.63
2018-01-19T15:48:17.134Z,5.97
2018-01-19T15:50:44.591Z,6.30
2018-01-19T15:53:12.062Z,5.90
2018-01-19T15:55:39.516Z,5.67
2018-01-19T15:58:06.986Z,7.63
2018-01-19T16:00:34.431Z,7.17
2018-01-19T16:03:01.883Z,8.80
2018-01-19T16:05:29.410Z,6.57
2018-01-19T16:07:56.878Z,5.43
2018-01-19T16:10:24.355Z,8.73
2018-01-19T16:12:52.774Z,10.37
2018-01-19T16:15:20.250Z,11.40
2018-01-19T16:17:47.766Z,12.43
2018-01-19T16:20:15.694Z,13.33
2018-01-19T16:22:43.310Z,26.20
2018-01-19T16:25:10.791Z,26.13
2018-01-19T16:27:38.347Z,17.80
2018-01-19T16:30:05.866Z,10.27
2018-01-19T16:32:33.343Z,9.60
2018-01-19T16:35:00.832Z,8.70
2018-01-19T16:37:28.290Z,5.67
2018-01-19T16:39:55.827Z,7.83
2018-01-19T16:42:23.287Z,7.40
2018-01-19T16:44:50.779Z,8.13
2018-01-19T16:47:18.232Z,8.40
2018-01-19T16:49:45.701Z,10.63
2018-01-19T16:52:13.171Z,8.07
2018-01-19T16:54:40.654Z,9.10
2018-01-19T16:57:08.123Z,9.77
2018-01-19T16:59:35.642Z,5.73
2018-01-19T17:02:03.102Z,7.60
2018-01-19T17:04:30.583Z,9.13
2018-01-19T17:06:58.038Z,5.90
2018-01-19T17:09:25.518Z,5.47
2018-01-19T17:11:52.994Z,6.03
2018-01-19T17:14:20.477Z,7.67
2018-01-19T17:16:47.935Z,7.63
2018-01-19T17:19:15.413Z,4.40
2018-01-19T17:21:42.874Z,6.67
2018-01-19T17:24:10.343Z,4.80
2018-01-19T17:26:37.792Z,7.87
2018-01-19T17:29:05.254Z,7.53
2018-01-19T17:31:32.740Z,6.27
2018-01-19T17:34:05.906Z,9.87
2018-01-19T17:36:33.395Z,6.57
2018-01-19T17:39:00.842Z,8.47
2018-01-19T17:41:28.359Z,7.27
2018-01-19T17:43:55.923Z,8.83
2018-01-19T17:46:23.436Z,11.87
2018-01-19T17:48:50.900Z,10.97
2018-01-19T17:51:19.348Z,11.47
2018-01-19T17:53:46.794Z,9.87
2018-01-19T17:56:14.286Z,8.43
2018-01-19T17:58:41.742Z,7.43
2018-01-19T18:01:13.338Z,8.90
2018-01-19T18:03:40.787Z,8.97
2018-01-19T18:06:08.267Z,9.70
2018-01-19T18:08:35.723Z,6.20
2018-01-19T18:11:03.199Z,7.27
2018-01-19T18:13:30.724Z,6.93
2018-01-19T18:15:58.206Z,8.80
2018-01-19T18:18:25.654Z,5.33
2018-01-19T18:20:53.153Z,11.60
2018-01-19T18:23:20.610Z,5.70
2018-01-19T18:25:48.088Z,10.00
2018-01-19T18:28:15.542Z,9.33
2018-01-19T18:30:43.075Z,6.20
2018-01-19T18:33:10.535Z,10.13
2018-01-19T18:35:55.994Z,6.80
2018-01-19T18:38:23.451Z,7.17
2018-01-19T18:40:50.923Z,10.73
2018-01-19T18:43:18.379Z,11.17
2018-01-19T18:45:45.863Z,8.10
2018-01-19T18:48:13.313Z,5.97
2018-01-19T18:50:40.785Z,8.97
2018-01-19T18:53:08.238Z,11.80
2018-01-19T18:55:36.728Z,4.80
2018-01-19T18:58:04.171Z,8.17
2018-01-19T19:00:31.650Z,9.93
2018-01-19T19:02:59.119Z,24.63
2018-01-19T19:05:26.678Z,12.47
2018-01-19T19:07:54.100Z,9.87
2018-01-19T19:10:21.555Z,9.27
2018-01-19T19:12:49.026Z,10.57
2018-01-19T19:15:16.475Z,17.20
2018-01-19T19:17:43.970Z,11.03
2018-01-19T19:20:11.417Z,11.07
2018-01-19T19:22:38.887Z,8.63
2018-01-19T19:25:07.323Z,7.80
2018-01-19T19:27:34.798Z,9.27
2018-01-19T19:30:02.255Z,8.43
2018-01-19T19:32:29.722Z,6.63
2018-01-19T19:34:57.176Z,9.03
2018-01-19T19:37:25.635Z,7.40
2018-01-19T19:39:53.123Z,9.20
2018-01-19T19:42:20.600Z,10.13
2018-01-19T19:44:48.062Z,7.70
2018-01-19T19:47:22.564Z,8.63
2018-01-19T19:49:50.018Z,7.27
2018-01-19T19:52:17.524Z,6.13
2018-01-19T19:54:44.973Z,9.17
2018-01-19T19:57:12.454Z,6.73
2018-01-19T19:59:39.910Z,5.80
2018-01-19T20:02:07.402Z,7.77
2018-01-19T20:04:34.850Z,6.23
2018-01-19T20:07:02.314Z,7.97
2018-01-19T20:09:29.767Z,7.93
2018-01-19T20:11:57.254Z,4.10
2018-01-19T20:14:24.744Z,6.57
2018-01-19T20:16:52.238Z,4.00
2018-01-19T20:19:19.694Z,5.97
2018-01-19T20:21:47.174Z,7.57
2018-01-19T20:24:14.628Z,4.90
2018-01-19T20:26:42.098Z,6.07
2018-01-19T20:29:09.605Z,3.83
2018-01-19T20:31:37.053Z,7.43
2018-01-19T20:34:04.507Z,5.23
2018-01-19T20:36:32.053Z,4.77
2018-01-19T20:38:59.535Z,4.03
2018-01-19T20:41:26.992Z,7.13
2018-01-19T20:43:55.446Z,4.33
2018-01-19T20:46:22.917Z,3.33
2018-01-19T20:48:50.383Z,7.63
2018-01-19T20:51:17.891Z,4.30
2018-01-19T20:53:45.359Z,8.20
2018-01-19T20:56:12.807Z,6.03
2018-01-19T20:58:40.278Z,5.77
2018-01-19T21:01:07.747Z,5.90
2018-01-19T21:03:35.226Z,7.87
2018-01-19T21:06:02.676Z,7.80
2018-01-19T21:08:36.499Z,7.17
2018-01-19T21:11:09.309Z,4.33
2018-01-19T21:13:36.775Z,7.20
2018-01-19T21:16:04.254Z,7.17
2018-01-19T21:18:31.718Z,8.20
2018-01-19T21:20:59.167Z,5.87
2018-01-19T21:23:26.637Z,5.03
2018-01-19T21:25:54.107Z,5.83
2018-01-19T21:28:21.610Z,5.43
2018-01-19T21:30:49.062Z,7.43
2018-01-19T21:33:16.534Z,8.47
2018-01-19T21:35:43.980Z,6.97
2018-01-19T21:38:11.446Z,6.40
2018-01-19T21:40:38.910Z,7.10
2018-01-19T21:43:06.380Z,5.57
2018-01-19T21:45:33.839Z,8.30
2018-01-19T21:48:01.315Z,7.47
2018-01-19T21:50:28.779Z,5.00
2018-01-19T21:52:56.249Z,8.13
2018-01-19T21:55:23.739Z,5.97
2018-01-19T21:57:51.218Z,6.50
2018-01-19T22:00:18.685Z,5.17
2018-01-19T22:02:46.167Z,6.90
2018-01-19T22:05:19.294Z,6.40
2018-01-19T22:07:46.766Z,6.50
2018-01-19T22:10:14.229Z,7.63
2018-01-19T22:12:41.676Z,8.83
2018-01-19T22:15:09.159Z,6.83
2018-01-19T22:17:36.611Z,9.63
2018-01-19T22:20:04.087Z,9.80
2018-01-19T22:22:31.530Z,8.27
2018-01-19T22:24:59.006Z,6.90
2018-01-19T22:27:26.466Z,6.23
2018-01-19T22:29:53.941Z,5.57
2018-01-19T22:32:21.389Z,4.83
2018-01-19T22:34:48.864Z,7.90
2018-01-19T22:37:16.323Z,9.13
2018-01-19T22:39:43.806Z,7.47
2018-01-19T22:42:12.237Z,6.33
2018-01-19T22:44:39.707Z,7.93
2018-01-19T22:47:07.166Z,7.33
2018-01-19T22:49:34.630Z,8.27
2018-01-19T22:52:02.078Z,9.73
2018-01-19T22:54:29.558Z,6.07
2018-01-19T22:56:57.011Z,10.57
2018-01-19T22:59:24.487Z,5.20
2018-01-19T23:01:51.941Z,8.77
2018-01-19T23:04:19.406Z,7.17
2018-01-19T23:06:46.864Z,6.67
2018-01-19T23:09:14.331Z,9.53
2018-01-19T23:11:41.778Z,7.73
2018-01-19T23:14:09.255Z,7.17
2018-01-19T23:16:36.706Z,6.27
2018-01-19T23:19:04.177Z,5.07
2018-01-19T23:21:31.630Z,7.33
2018-01-19T23:24:00.136Z,8.83
2018-01-19T23:26:27.586Z,8.67
2018-01-19T23:28:55.073Z,2.73
2018-01-19T23:31:22.526Z,4.67
2018-01-19T23:33:49.983Z,6.87
2018-01-19T23:36:17.461Z,5.67
2018-01-19T23:38:44.918Z,6.37
2018-01-19T23:41:12.391Z,8.43
2018-01-19T23:43:39.848Z,5.30
2018-01-19T23:46:07.319Z,4.63
2018-01-19T23:48:34.771Z,6.90
2018-01-19T23:51:02.335Z,4.10
2018-01-19T23:53:29.794Z,6.37
2018-01-19T23:55:57.267Z,5.87
2018-01-19T23:58:24.711Z,5.87
